sensor_id;sensor_type;location;lat;lon;timestamp;P1;durP1;ratioP1;P2;durP2;ratioP2
39674;SDS011;27790;50.840;4.386;2023-04-26T00:02:06;11.13;;;3.70;;
39674;SDS011;27790;50.840;4.386;2023-04-26T00:04:32;11.18;;;3.95;;
39674;SDS011;27790;50.840;4.386;2023-04-26T00:06:58;7.97;;;3.67;;
39674;SDS011;27790;50.840;4.386;2023-04-26T00:09:24;11.40;;;4.30;;
39674;SDS011;27790;50.840;4.386;2023-04-26T00:11:50;12.30;;;3.88;;
39674;SDS011;27790;50.840;4.386;2023-04-26T00:14:16;7.57;;;4.57;;
39674;SDS011;27790;50.840;4.386;2023-04-26T00:16:42;14.30;;;4.13;;
39674;SDS011;27790;50.840;4.386;2023-04-26T00:19:07;14.60;;;5.28;;
39674;SDS011;27790;50.840;4.386;2023-04-26T00:21:34;13.25;;;4.22;;
39674;SDS011;27790;50.840;4.386;2023-04-26T00:24:00;10.90;;;4.15;;
39674;SDS011;27790;50.840;4.386;2023-04-26T00:26:26;8.63;;;4.10;;
39674;SDS011;27790;50.840;4.386;2023-04-26T00:28:52;16.48;;;5.13;;
39674;SDS011;27790;50.840;4.386;2023-04-26T00:31:17;11.10;;;4.05;;
39674;SDS011;27790;50.840;4.386;2023-04-26T00:33:43;19.38;;;6.32;;
39674;SDS011;27790;50.840;4.386;2023-04-26T00:36:09;9.02;;;3.97;;
39674;SDS011;27790;50.840;4.386;2023-04-26T00:38:35;11.85;;;4.50;;
39674;SDS011;27790;50.840;4.386;2023-04-26T00:41:00;15.90;;;5.30;;
39674;SDS011;27790;50.840;4.386;2023-04-26T00:43:26;17.48;;;5.35;;
39674;SDS011;27790;50.840;4.386;2023-04-26T00:45:52;11.23;;;3.85;;
39674;SDS011;27790;50.840;4.386;2023-04-26T00:48:18;15.65;;;5.43;;
39674;SDS011;27790;50.840;4.386;2023-04-26T00:50:44;16.08;;;4.72;;
39674;SDS011;27790;50.840;4.386;2023-04-26T00:53:12;12.02;;;5.25;;
39674;SDS011;27790;50.840;4.386;2023-04-26T00:55:39;9.93;;;5.43;;
39674;SDS011;27790;50.840;4.386;2023-04-26T00:58:06;10.75;;;4.65;;
39674;SDS011;27790;50.840;4.386;2023-04-26T01:00:31;14.32;;;4.93;;
39674;SDS011;27790;50.840;4.386;2023-04-26T01:02:58;14.00;;;5.57;;
39674;SDS011;27790;50.840;4.386;2023-04-26T01:05:24;9.90;;;4.47;;
39674;SDS011;27790;50.840;4.386;2023-04-26T01:07:49;8.13;;;4.63;;
39674;SDS011;27790;50.840;4.386;2023-04-26T01:10:16;11.35;;;3.75;;
39674;SDS011;27790;50.840;4.386;2023-04-26T01:12:42;11.80;;;4.75;;
39674;SDS011;27790;50.840;4.386;2023-04-26T01:15:08;11.48;;;4.18;;
39674;SDS011;27790;50.840;4.386;2023-04-26T01:17:35;8.02;;;4.63;;
39674;SDS011;27790;50.840;4.386;2023-04-26T01:20:04;9.70;;;4.40;;
39674;SDS011;27790;50.840;4.386;2023-04-26T01:22:33;18.92;;;4.50;;
39674;SDS011;27790;50.840;4.386;2023-04-26T01:24:58;21.42;;;6.15;;
39674;SDS011;27790;50.840;4.386;2023-04-26T01:27:28;12.82;;;4.43;;
39674;SDS011;27790;50.840;4.386;2023-04-26T01:29:53;11.15;;;4.68;;
39674;SDS011;27790;50.840;4.386;2023-04-26T01:32:19;9.85;;;5.20;;
39674;SDS011;27790;50.840;4.386;2023-04-26T01:34:45;15.77;;;5.18;;
39674;SDS011;27790;50.840;4.386;2023-04-26T01:37:10;11.02;;;4.70;;
39674;SDS011;27790;50.840;4.386;2023-04-26T01:39:36;10.60;;;4.28;;
39674;SDS011;27790;50.840;4.386;2023-04-26T01:42:02;13.38;;;5.00;;
39674;SDS011;27790;50.840;4.386;2023-04-26T01:44:28;10.23;;;4.82;;
39674;SDS011;27790;50.840;4.386;2023-04-26T01:46:54;13.93;;;4.90;;
39674;SDS011;27790;50.840;4.386;2023-04-26T01:49:20;22.52;;;5.35;;
39674;SDS011;27790;50.840;4.386;2023-04-26T01:51:46;18.85;;;5.05;;
39674;SDS011;27790;50.840;4.386;2023-04-26T01:54:11;14.73;;;5.55;;
39674;SDS011;27790;50.840;4.386;2023-04-26T01:56:37;9.85;;;4.10;;
39674;SDS011;27790;50.840;4.386;2023-04-26T01:59:02;12.77;;;4.72;;
39674;SDS011;27790;50.840;4.386;2023-04-26T02:01:28;13.00;;;4.50;;
39674;SDS011;27790;50.840;4.386;2023-04-26T02:03:55;8.60;;;5.18;;
39674;SDS011;27790;50.840;4.386;2023-04-26T02:06:20;11.65;;;5.00;;
39674;SDS011;27790;50.840;4.386;2023-04-26T02:08:46;18.80;;;5.45;;
39674;SDS011;27790;50.840;4.386;2023-04-26T02:11:11;14.60;;;5.15;;
39674;SDS011;27790;50.840;4.386;2023-04-26T02:13:37;12.27;;;5.05;;
39674;SDS011;27790;50.840;4.386;2023-04-26T02:16:03;17.63;;;5.82;;
39674;SDS011;27790;50.840;4.386;2023-04-26T02:18:29;10.48;;;4.93;;
39674;SDS011;27790;50.840;4.386;2023-04-26T02:20:54;11.85;;;4.97;;
39674;SDS011;27790;50.840;4.386;2023-04-26T02:23:20;13.32;;;5.18;;
39674;SDS011;27790;50.840;4.386;2023-04-26T02:25:46;12.57;;;4.75;;
39674;SDS011;27790;50.840;4.386;2023-04-26T02:28:13;10.70;;;4.85;;
39674;SDS011;27790;50.840;4.386;2023-04-26T02:30:40;11.85;;;5.13;;
39674;SDS011;27790;50.840;4.386;2023-04-26T02:33:06;9.57;;;5.05;;
39674;SDS011;27790;50.840;4.386;2023-04-26T02:35:32;16.00;;;5.15;;
39674;SDS011;27790;50.840;4.386;2023-04-26T02:37:59;12.43;;;5.22;;
39674;SDS011;27790;50.840;4.386;2023-04-26T02:40:24;18.20;;;6.13;;
39674;SDS011;27790;50.840;4.386;2023-04-26T02:42:51;15.25;;;5.32;;
39674;SDS011;27790;50.840;4.386;2023-04-26T02:45:16;13.80;;;5.22;;
39674;SDS011;27790;50.840;4.386;2023-04-26T02:47:42;16.60;;;5.60;;
39674;SDS011;27790;50.840;4.386;2023-04-26T02:50:08;10.50;;;4.65;;
39674;SDS011;27790;50.840;4.386;2023-04-26T02:52:34;18.63;;;5.95;;
39674;SDS011;27790;50.840;4.386;2023-04-26T02:55:01;16.60;;;6.25;;
39674;SDS011;27790;50.840;4.386;2023-04-26T02:57:28;12.25;;;4.72;;
39674;SDS011;27790;50.840;4.386;2023-04-26T02:59:54;15.52;;;4.97;;
39674;SDS011;27790;50.840;4.386;2023-04-26T03:02:19;16.75;;;5.05;;
39674;SDS011;27790;50.840;4.386;2023-04-26T03:04:45;9.63;;;4.43;;
39674;SDS011;27790;50.840;4.386;2023-04-26T03:07:11;15.07;;;5.00;;
39674;SDS011;27790;50.840;4.386;2023-04-26T03:09:37;10.55;;;4.40;;
39674;SDS011;27790;50.840;4.386;2023-04-26T03:12:06;13.43;;;5.38;;
39674;SDS011;27790;50.840;4.386;2023-04-26T03:14:32;12.73;;;5.72;;
39674;SDS011;27790;50.840;4.386;2023-04-26T03:16:58;12.65;;;5.38;;
39674;SDS011;27790;50.840;4.386;2023-04-26T03:19:24;15.05;;;5.97;;
39674;SDS011;27790;50.840;4.386;2023-04-26T03:21:51;19.77;;;5.70;;
39674;SDS011;27790;50.840;4.386;2023-04-26T03:24:16;15.15;;;4.70;;
39674;SDS011;27790;50.840;4.386;2023-04-26T03:26:42;16.80;;;5.88;;
39674;SDS011;27790;50.840;4.386;2023-04-26T03:29:08;16.83;;;5.35;;
39674;SDS011;27790;50.840;4.386;2023-04-26T03:31:33;10.48;;;5.50;;
39674;SDS011;27790;50.840;4.386;2023-04-26T03:33:59;12.02;;;6.07;;
39674;SDS011;27790;50.840;4.386;2023-04-26T03:36:25;16.60;;;5.85;;
39674;SDS011;27790;50.840;4.386;2023-04-26T03:38:52;11.98;;;5.47;;
39674;SDS011;27790;50.840;4.386;2023-04-26T03:41:18;9.63;;;4.38;;
39674;SDS011;27790;50.840;4.386;2023-04-26T03:43:44;16.35;;;5.90;;
39674;SDS011;27790;50.840;4.386;2023-04-26T03:46:10;14.88;;;4.85;;
39674;SDS011;27790;50.840;4.386;2023-04-26T03:48:35;16.02;;;6.45;;
39674;SDS011;27790;50.840;4.386;2023-04-26T03:51:01;15.10;;;5.63;;
39674;SDS011;27790;50.840;4.386;2023-04-26T03:53:27;13.30;;;6.93;;
39674;SDS011;27790;50.840;4.386;2023-04-26T03:55:53;13.55;;;5.70;;
39674;SDS011;27790;50.840;4.386;2023-04-26T03:58:18;17.65;;;6.28;;
39674;SDS011;27790;50.840;4.386;2023-04-26T04:00:44;13.20;;;5.60;;
39674;SDS011;27790;50.840;4.386;2023-04-26T04:03:10;25.33;;;7.55;;
39674;SDS011;27790;50.840;4.386;2023-04-26T04:05:36;10.52;;;5.50;;
39674;SDS011;27790;50.840;4.386;2023-04-26T04:08:02;14.63;;;5.90;;
39674;SDS011;27790;50.840;4.386;2023-04-26T04:10:28;15.73;;;5.65;;
39674;SDS011;27790;50.840;4.386;2023-04-26T04:12:53;13.57;;;5.88;;
39674;SDS011;27790;50.840;4.386;2023-04-26T04:15:19;23.45;;;6.93;;
39674;SDS011;27790;50.840;4.386;2023-04-26T04:17:45;12.52;;;5.65;;
39674;SDS011;27790;50.840;4.386;2023-04-26T04:20:11;13.38;;;5.50;;
39674;SDS011;27790;50.840;4.386;2023-04-26T04:22:37;10.27;;;4.82;;
39674;SDS011;27790;50.840;4.386;2023-04-26T04:25:04;17.92;;;5.78;;
39674;SDS011;27790;50.840;4.386;2023-04-26T04:27:34;19.30;;;9.75;;
39674;SDS011;27790;50.840;4.386;2023-04-26T04:30:01;18.75;;;6.57;;
39674;SDS011;27790;50.840;4.386;2023-04-26T04:32:28;8.80;;;5.13;;
39674;SDS011;27790;50.840;4.386;2023-04-26T04:34:56;17.15;;;6.35;;
39674;SDS011;27790;50.840;4.386;2023-04-26T04:37:23;18.67;;;5.90;;
39674;SDS011;27790;50.840;4.386;2023-04-26T04:39:50;20.50;;;7.13;;
39674;SDS011;27790;50.840;4.386;2023-04-26T04:42:16;9.27;;;5.65;;
39674;SDS011;27790;50.840;4.386;2023-04-26T04:44:42;15.80;;;5.15;;
39674;SDS011;27790;50.840;4.386;2023-04-26T04:47:09;16.00;;;5.85;;
39674;SDS011;27790;50.840;4.386;2023-04-26T04:49:35;31.30;;;6.07;;
39674;SDS011;27790;50.840;4.386;2023-04-26T04:52:02;17.42;;;6.55;;
39674;SDS011;27790;50.840;4.386;2023-04-26T04:54:28;16.38;;;6.25;;
39674;SDS011;27790;50.840;4.386;2023-04-26T04:56:54;18.08;;;5.70;;
39674;SDS011;27790;50.840;4.386;2023-04-26T04:59:19;27.13;;;6.65;;
39674;SDS011;27790;50.840;4.386;2023-04-26T05:01:45;16.88;;;6.30;;
39674;SDS011;27790;50.840;4.386;2023-04-26T05:04:10;18.35;;;6.95;;
39674;SDS011;27790;50.840;4.386;2023-04-26T05:06:36;12.25;;;5.97;;
39674;SDS011;27790;50.840;4.386;2023-04-26T05:09:02;17.75;;;6.80;;
39674;SDS011;27790;50.840;4.386;2023-04-26T05:11:29;12.30;;;6.25;;
39674;SDS011;27790;50.840;4.386;2023-04-26T05:13:56;17.85;;;6.38;;
39674;SDS011;27790;50.840;4.386;2023-04-26T05:16:22;11.65;;;6.57;;
39674;SDS011;27790;50.840;4.386;2023-04-26T05:18:47;12.18;;;5.93;;
39674;SDS011;27790;50.840;4.386;2023-04-26T05:21:13;25.98;;;7.78;;
39674;SDS011;27790;50.840;4.386;2023-04-26T05:23:38;17.90;;;5.43;;
39674;SDS011;27790;50.840;4.386;2023-04-26T05:26:04;17.90;;;7.00;;
39674;SDS011;27790;50.840;4.386;2023-04-26T05:28:31;15.68;;;6.90;;
39674;SDS011;27790;50.840;4.386;2023-04-26T05:30:57;16.80;;;6.32;;
39674;SDS011;27790;50.840;4.386;2023-04-26T05:33:23;13.63;;;6.38;;
39674;SDS011;27790;50.840;4.386;2023-04-26T05:35:49;18.55;;;7.10;;
39674;SDS011;27790;50.840;4.386;2023-04-26T05:38:16;19.65;;;6.85;;
39674;SDS011;27790;50.840;4.386;2023-04-26T05:40:42;21.40;;;6.82;;
39674;SDS011;27790;50.840;4.386;2023-04-26T05:43:07;13.38;;;6.45;;
39674;SDS011;27790;50.840;4.386;2023-04-26T05:45:33;16.35;;;6.72;;
39674;SDS011;27790;50.840;4.386;2023-04-26T05:47:59;11.10;;;4.88;;
39674;SDS011;27790;50.840;4.386;2023-04-26T05:50:25;11.02;;;5.05;;
39674;SDS011;27790;50.840;4.386;2023-04-26T05:52:51;7.95;;;4.40;;
39674;SDS011;27790;50.840;4.386;2023-04-26T05:55:16;16.13;;;5.90;;
39674;SDS011;27790;50.840;4.386;2023-04-26T05:57:44;9.18;;;4.78;;
39674;SDS011;27790;50.840;4.386;2023-04-26T06:00:09;9.20;;;3.08;;
39674;SDS011;27790;50.840;4.386;2023-04-26T06:02:36;13.85;;;4.75;;
39674;SDS011;27790;50.840;4.386;2023-04-26T06:05:02;9.55;;;4.65;;
39674;SDS011;27790;50.840;4.386;2023-04-26T06:07:29;9.02;;;4.43;;
39674;SDS011;27790;50.840;4.386;2023-04-26T06:09:55;8.05;;;4.50;;
39674;SDS011;27790;50.840;4.386;2023-04-26T06:12:20;9.30;;;4.85;;
39674;SDS011;27790;50.840;4.386;2023-04-26T06:14:46;13.40;;;4.50;;
39674;SDS011;27790;50.840;4.386;2023-04-26T06:17:11;10.68;;;4.38;;
39674;SDS011;27790;50.840;4.386;2023-04-26T06:19:38;15.63;;;4.07;;
39674;SDS011;27790;50.840;4.386;2023-04-26T06:22:03;12.88;;;3.75;;
39674;SDS011;27790;50.840;4.386;2023-04-26T06:24:29;16.15;;;3.85;;
39674;SDS011;27790;50.840;4.386;2023-04-26T06:26:54;10.57;;;4.00;;
39674;SDS011;27790;50.840;4.386;2023-04-26T06:29:20;13.10;;;4.90;;
39674;SDS011;27790;50.840;4.386;2023-04-26T06:31:46;6.72;;;2.35;;
39674;SDS011;27790;50.840;4.386;2023-04-26T06:34:11;7.35;;;2.58;;
39674;SDS011;27790;50.840;4.386;2023-04-26T06:36:37;13.07;;;4.43;;
39674;SDS011;27790;50.840;4.386;2023-04-26T06:39:03;3.55;;;2.53;;
39674;SDS011;27790;50.840;4.386;2023-04-26T06:41:28;10.40;;;3.00;;
39674;SDS011;27790;50.840;4.386;2023-04-26T06:43:55;6.53;;;2.42;;
39674;SDS011;27790;50.840;4.386;2023-04-26T06:46:20;11.80;;;3.20;;
39674;SDS011;27790;50.840;4.386;2023-04-26T06:48:46;11.32;;;2.78;;
39674;SDS011;27790;50.840;4.386;2023-04-26T06:51:11;10.52;;;3.80;;
39674;SDS011;27790;50.840;4.386;2023-04-26T06:53:37;10.00;;;3.03;;
39674;SDS011;27790;50.840;4.386;2023-04-26T06:56:03;9.52;;;3.20;;
39674;SDS011;27790;50.840;4.386;2023-04-26T06:58:29;9.23;;;3.15;;
39674;SDS011;27790;50.840;4.386;2023-04-26T07:00:54;9.02;;;3.60;;
39674;SDS011;27790;50.840;4.386;2023-04-26T07:03:20;6.22;;;2.78;;
39674;SDS011;27790;50.840;4.386;2023-04-26T07:05:46;6.80;;;2.60;;
39674;SDS011;27790;50.840;4.386;2023-04-26T07:08:12;8.45;;;3.08;;
39674;SDS011;27790;50.840;4.386;2023-04-26T07:10:38;8.13;;;2.97;;
39674;SDS011;27790;50.840;4.386;2023-04-26T07:13:05;8.82;;;3.67;;
39674;SDS011;27790;50.840;4.386;2023-04-26T07:15:30;14.80;;;3.45;;
39674;SDS011;27790;50.840;4.386;2023-04-26T07:17:57;11.13;;;2.83;;
39674;SDS011;27790;50.840;4.386;2023-04-26T07:20:22;10.75;;;3.90;;
39674;SDS011;27790;50.840;4.386;2023-04-26T07:22:48;12.60;;;3.65;;
39674;SDS011;27790;50.840;4.386;2023-04-26T07:25:15;13.32;;;3.95;;
39674;SDS011;27790;50.840;4.386;2023-04-26T07:27:41;12.63;;;3.42;;
39674;SDS011;27790;50.840;4.386;2023-04-26T07:30:07;13.60;;;3.38;;
39674;SDS011;27790;50.840;4.386;2023-04-26T07:32:34;12.02;;;2.92;;
39674;SDS011;27790;50.840;4.386;2023-04-26T07:35:00;9.57;;;2.75;;
39674;SDS011;27790;50.840;4.386;2023-04-26T07:37:28;7.90;;;3.08;;
39674;SDS011;27790;50.840;4.386;2023-04-26T07:39:53;9.50;;;3.40;;
39674;SDS011;27790;50.840;4.386;2023-04-26T07:42:19;6.60;;;3.47;;
39674;SDS011;27790;50.840;4.386;2023-04-26T07:44:46;11.52;;;3.55;;
39674;SDS011;27790;50.840;4.386;2023-04-26T07:47:13;12.05;;;4.40;;
39674;SDS011;27790;50.840;4.386;2023-04-26T07:49:38;11.38;;;3.83;;
39674;SDS011;27790;50.840;4.386;2023-04-26T07:52:06;4.75;;;2.85;;
39674;SDS011;27790;50.840;4.386;2023-04-26T07:54:33;11.57;;;3.67;;
39674;SDS011;27790;50.840;4.386;2023-04-26T07:56:58;12.70;;;3.88;;
39674;SDS011;27790;50.840;4.386;2023-04-26T07:59:24;11.20;;;3.75;;
39674;SDS011;27790;50.840;4.386;2023-04-26T08:01:50;11.25;;;4.43;;
39674;SDS011;27790;50.840;4.386;2023-04-26T08:04:17;11.45;;;3.47;;
39674;SDS011;27790;50.840;4.386;2023-04-26T08:06:56;10.68;;;3.35;;
39674;SDS011;27790;50.840;4.386;2023-04-26T08:09:21;7.03;;;3.50;;
39674;SDS011;27790;50.840;4.386;2023-04-26T08:11:47;17.40;;;3.95;;
39674;SDS011;27790;50.840;4.386;2023-04-26T08:14:13;11.00;;;3.60;;
39674;SDS011;27790;50.840;4.386;2023-04-26T08:16:38;6.70;;;3.10;;
39674;SDS011;27790;50.840;4.386;2023-04-26T08:19:05;11.27;;;3.65;;
39674;SDS011;27790;50.840;4.386;2023-04-26T08:21:33;6.47;;;3.00;;
39674;SDS011;27790;50.840;4.386;2023-04-26T08:23:59;12.32;;;4.30;;
39674;SDS011;27790;50.840;4.386;2023-04-26T08:26:25;11.27;;;3.63;;
39674;SDS011;27790;50.840;4.386;2023-04-26T08:28:50;6.72;;;3.03;;
39674;SDS011;27790;50.840;4.386;2023-04-26T08:31:16;7.70;;;3.28;;
39674;SDS011;27790;50.840;4.386;2023-04-26T08:33:41;14.88;;;3.15;;
39674;SDS011;27790;50.840;4.386;2023-04-26T08:36:07;7.28;;;2.63;;
39674;SDS011;27790;50.840;4.386;2023-04-26T08:38:33;11.00;;;3.70;;
39674;SDS011;27790;50.840;4.386;2023-04-26T08:40:59;15.93;;;3.10;;
39674;SDS011;27790;50.840;4.386;2023-04-26T08:43:26;5.55;;;3.17;;
39674;SDS011;27790;50.840;4.386;2023-04-26T08:45:53;7.82;;;3.40;;
39674;SDS011;27790;50.840;4.386;2023-04-26T08:48:19;3.45;;;2.85;;
39674;SDS011;27790;50.840;4.386;2023-04-26T08:50:46;10.77;;;2.90;;
39674;SDS011;27790;50.840;4.386;2023-04-26T08:53:12;6.18;;;2.75;;
39674;SDS011;27790;50.840;4.386;2023-04-26T08:55:46;8.88;;;3.15;;
39674;SDS011;27790;50.840;4.386;2023-04-26T08:58:16;6.03;;;3.15;;
39674;SDS011;27790;50.840;4.386;2023-04-26T09:00:43;6.93;;;2.72;;
39674;SDS011;27790;50.840;4.386;2023-04-26T09:03:12;7.97;;;3.55;;
39674;SDS011;27790;50.840;4.386;2023-04-26T09:05:38;8.43;;;3.28;;
39674;SDS011;27790;50.840;4.386;2023-04-26T09:08:07;11.18;;;3.13;;
39674;SDS011;27790;50.840;4.386;2023-04-26T09:10:35;8.73;;;3.75;;
39674;SDS011;27790;50.840;4.386;2023-04-26T09:13:01;8.57;;;2.40;;
39674;SDS011;27790;50.840;4.386;2023-04-26T09:15:27;6.50;;;2.38;;
39674;SDS011;27790;50.840;4.386;2023-04-26T09:17:52;7.35;;;2.63;;
39674;SDS011;27790;50.840;4.386;2023-04-26T09:20:25;5.15;;;2.22;;
39674;SDS011;27790;50.840;4.386;2023-04-26T09:23:13;5.38;;;1.98;;
39674;SDS011;27790;50.840;4.386;2023-04-26T09:25:40;9.18;;;2.30;;
39674;SDS011;27790;50.840;4.386;2023-04-26T09:30:46;6.30;;;2.70;;
39674;SDS011;27790;50.840;4.386;2023-04-26T09:33:12;6.43;;;3.28;;
39674;SDS011;27790;50.840;4.386;2023-04-26T09:35:39;5.00;;;2.78;;
39674;SDS011;27790;50.840;4.386;2023-04-26T09:38:09;4.28;;;2.50;;
39674;SDS011;27790;50.840;4.386;2023-04-26T09:40:40;3.60;;;2.50;;
39674;SDS011;27790;50.840;4.386;2023-04-26T09:43:07;5.25;;;2.45;;
39674;SDS011;27790;50.840;4.386;2023-04-26T09:48:19;7.88;;;2.58;;
39674;SDS011;27790;50.840;4.386;2023-04-26T09:50:46;7.03;;;2.47;;
39674;SDS011;27790;50.840;4.386;2023-04-26T09:55:55;8.07;;;3.22;;
39674;SDS011;27790;50.840;4.386;2023-04-26T09:58:22;5.63;;;3.10;;
39674;SDS011;27790;50.840;4.386;2023-04-26T10:00:51;7.20;;;2.65;;
39674;SDS011;27790;50.840;4.386;2023-04-26T10:03:17;5.43;;;3.13;;
39674;SDS011;27790;50.840;4.386;2023-04-26T10:05:44;9.35;;;2.53;;
39674;SDS011;27790;50.840;4.386;2023-04-26T10:08:11;3.75;;;2.05;;
39674;SDS011;27790;50.840;4.386;2023-04-26T10:10:37;7.15;;;2.53;;
39674;SDS011;27790;50.840;4.386;2023-04-26T10:13:04;3.90;;;2.40;;
39674;SDS011;27790;50.840;4.386;2023-04-26T10:15:30;7.85;;;2.25;;
39674;SDS011;27790;50.840;4.386;2023-04-26T10:17:56;9.02;;;2.67;;
39674;SDS011;27790;50.840;4.386;2023-04-26T10:20:22;6.95;;;2.47;;
39674;SDS011;27790;50.840;4.386;2023-04-26T10:22:52;5.20;;;2.58;;
39674;SDS011;27790;50.840;4.386;2023-04-26T10:28:02;5.18;;;2.13;;
39674;SDS011;27790;50.840;4.386;2023-04-26T10:30:28;7.05;;;2.58;;
39674;SDS011;27790;50.840;4.386;2023-04-26T10:35:27;7.07;;;2.65;;
39674;SDS011;27790;50.840;4.386;2023-04-26T10:40:29;6.13;;;2.20;;
39674;SDS011;27790;50.840;4.386;2023-04-26T10:45:32;10.05;;;3.00;;
39674;SDS011;27790;50.840;4.386;2023-04-26T10:53:28;6.57;;;2.40;;
39674;SDS011;27790;50.840;4.386;2023-04-26T10:55:55;3.17;;;2.28;;
39674;SDS011;27790;50.840;4.386;2023-04-26T10:58:27;7.82;;;2.80;;
39674;SDS011;27790;50.840;4.386;2023-04-26T11:01:02;7.85;;;3.33;;
39674;SDS011;27790;50.840;4.386;2023-04-26T11:03:29;7.22;;;2.97;;
39674;SDS011;27790;50.840;4.386;2023-04-26T11:05:55;8.52;;;2.83;;
39674;SDS011;27790;50.840;4.386;2023-04-26T11:08:25;3.60;;;2.45;;
39674;SDS011;27790;50.840;4.386;2023-04-26T11:13:31;6.53;;;2.17;;
39674;SDS011;27790;50.840;4.386;2023-04-26T11:16:00;4.32;;;2.10;;
39674;SDS011;27790;50.840;4.386;2023-04-26T11:18:28;4.85;;;2.47;;
39674;SDS011;27790;50.840;4.386;2023-04-26T11:20:54;4.82;;;2.17;;
39674;SDS011;27790;50.840;4.386;2023-04-26T11:23:21;6.15;;;2.38;;
39674;SDS011;27790;50.840;4.386;2023-04-26T11:25:47;7.38;;;2.83;;
39674;SDS011;27790;50.840;4.386;2023-04-26T11:28:13;8.75;;;2.90;;
39674;SDS011;27790;50.840;4.386;2023-04-26T11:30:39;5.10;;;2.70;;
39674;SDS011;27790;50.840;4.386;2023-04-26T11:33:05;6.95;;;2.58;;
39674;SDS011;27790;50.840;4.386;2023-04-26T11:35:40;7.65;;;2.92;;
39674;SDS011;27790;50.840;4.386;2023-04-26T11:38:06;5.00;;;3.28;;
39674;SDS011;27790;50.840;4.386;2023-04-26T11:40:32;8.65;;;3.47;;
39674;SDS011;27790;50.840;4.386;2023-04-26T11:43:03;6.72;;;3.25;;
39674;SDS011;27790;50.840;4.386;2023-04-26T11:45:32;4.78;;;3.50;;
39674;SDS011;27790;50.840;4.386;2023-04-26T11:48:02;8.95;;;3.63;;
39674;SDS011;27790;50.840;4.386;2023-04-26T11:50:36;8.90;;;2.67;;
39674;SDS011;27790;50.840;4.386;2023-04-26T11:53:03;8.00;;;3.53;;
39674;SDS011;27790;50.840;4.386;2023-04-26T11:55:31;5.45;;;2.65;;
39674;SDS011;27790;50.840;4.386;2023-04-26T11:57:58;8.40;;;3.47;;
39674;SDS011;27790;50.840;4.386;2023-04-26T12:00:24;4.90;;;2.67;;
39674;SDS011;27790;50.840;4.386;2023-04-26T12:02:50;8.57;;;3.22;;
39674;SDS011;27790;50.840;4.386;2023-04-26T12:07:56;5.00;;;2.90;;
39674;SDS011;27790;50.840;4.386;2023-04-26T12:10:26;5.13;;;2.90;;
39674;SDS011;27790;50.840;4.386;2023-04-26T12:12:57;5.68;;;3.13;;
39674;SDS011;27790;50.840;4.386;2023-04-26T12:15:30;6.82;;;3.70;;
39674;SDS011;27790;50.840;4.386;2023-04-26T12:20:34;5.70;;;3.08;;
39674;SDS011;27790;50.840;4.386;2023-04-26T12:25:31;5.45;;;2.45;;
39674;SDS011;27790;50.840;4.386;2023-04-26T12:27:58;6.95;;;3.15;;
39674;SDS011;27790;50.840;4.386;2023-04-26T12:30:25;5.38;;;3.47;;
39674;SDS011;27790;50.840;4.386;2023-04-26T12:32:51;6.38;;;2.72;;
39674;SDS011;27790;50.840;4.386;2023-04-26T12:35:17;7.60;;;2.75;;
39674;SDS011;27790;50.840;4.386;2023-04-26T12:37:43;6.63;;;2.88;;
39674;SDS011;27790;50.840;4.386;2023-04-26T12:40:09;8.57;;;3.50;;
39674;SDS011;27790;50.840;4.386;2023-04-26T12:42:35;11.25;;;3.15;;
39674;SDS011;27790;50.840;4.386;2023-04-26T12:45:01;6.95;;;3.10;;
39674;SDS011;27790;50.840;4.386;2023-04-26T12:47:28;8.73;;;3.38;;
39674;SDS011;27790;50.840;4.386;2023-04-26T12:49:55;8.55;;;2.60;;
39674;SDS011;27790;50.840;4.386;2023-04-26T12:52:20;7.80;;;3.08;;
39674;SDS011;27790;50.840;4.386;2023-04-26T12:54:46;6.60;;;2.95;;
39674;SDS011;27790;50.840;4.386;2023-04-26T12:57:13;8.90;;;2.92;;
39674;SDS011;27790;50.840;4.386;2023-04-26T12:59:39;7.65;;;3.00;;
39674;SDS011;27790;50.840;4.386;2023-04-26T13:02:05;9.57;;;3.00;;
39674;SDS011;27790;50.840;4.386;2023-04-26T13:04:31;5.05;;;2.63;;
39674;SDS011;27790;50.840;4.386;2023-04-26T13:06:59;7.13;;;2.78;;
39674;SDS011;27790;50.840;4.386;2023-04-26T13:09:25;8.75;;;3.88;;
39674;SDS011;27790;50.840;4.386;2023-04-26T13:11:51;6.30;;;3.63;;
39674;SDS011;27790;50.840;4.386;2023-04-26T13:14:16;6.50;;;3.28;;
39674;SDS011;27790;50.840;4.386;2023-04-26T13:16:42;6.18;;;3.42;;
39674;SDS011;27790;50.840;4.386;2023-04-26T13:19:11;6.97;;;3.10;;
39674;SDS011;27790;50.840;4.386;2023-04-26T13:21:36;6.15;;;3.55;;
39674;SDS011;27790;50.840;4.386;2023-04-26T13:24:02;8.00;;;3.45;;
39674;SDS011;27790;50.840;4.386;2023-04-26T13:26:28;6.18;;;3.58;;
39674;SDS011;27790;50.840;4.386;2023-04-26T13:28:53;6.78;;;2.85;;
39674;SDS011;27790;50.840;4.386;2023-04-26T13:31:19;8.27;;;3.85;;
39674;SDS011;27790;50.840;4.386;2023-04-26T13:33:46;12.15;;;3.88;;
39674;SDS011;27790;50.840;4.386;2023-04-26T13:36:13;5.78;;;4.03;;
39674;SDS011;27790;50.840;4.386;2023-04-26T13:38:42;9.55;;;3.92;;
39674;SDS011;27790;50.840;4.386;2023-04-26T13:41:08;6.45;;;3.65;;
39674;SDS011;27790;50.840;4.386;2023-04-26T13:43:34;6.25;;;3.83;;
39674;SDS011;27790;50.840;4.386;2023-04-26T13:46:00;6.55;;;3.72;;
39674;SDS011;27790;50.840;4.386;2023-04-26T13:48:26;7.68;;;4.03;;
39674;SDS011;27790;50.840;4.386;2023-04-26T13:50:52;9.38;;;3.58;;
39674;SDS011;27790;50.840;4.386;2023-04-26T13:53:20;3.92;;;2.88;;
39674;SDS011;27790;50.840;4.386;2023-04-26T13:55:46;17.17;;;4.35;;
39674;SDS011;27790;50.840;4.386;2023-04-26T13:58:12;6.10;;;3.30;;
39674;SDS011;27790;50.840;4.386;2023-04-26T14:00:37;10.88;;;3.60;;
39674;SDS011;27790;50.840;4.386;2023-04-26T14:03:03;9.27;;;4.00;;
39674;SDS011;27790;50.840;4.386;2023-04-26T14:05:28;9.07;;;4.40;;
39674;SDS011;27790;50.840;4.386;2023-04-26T14:07:54;8.27;;;4.28;;
39674;SDS011;27790;50.840;4.386;2023-04-26T14:10:21;14.52;;;3.72;;
39674;SDS011;27790;50.840;4.386;2023-04-26T14:12:46;7.90;;;3.58;;
39674;SDS011;27790;50.840;4.386;2023-04-26T14:15:12;7.50;;;4.07;;
39674;SDS011;27790;50.840;4.386;2023-04-26T14:17:38;10.63;;;4.13;;
39674;SDS011;27790;50.840;4.386;2023-04-26T14:20:03;13.98;;;3.70;;
39674;SDS011;27790;50.840;4.386;2023-04-26T14:22:30;8.73;;;4.03;;
39674;SDS011;27790;50.840;4.386;2023-04-26T14:24:56;6.32;;;3.53;;
39674;SDS011;27790;50.840;4.386;2023-04-26T14:27:21;8.50;;;3.50;;
39674;SDS011;27790;50.840;4.386;2023-04-26T14:29:47;4.78;;;3.42;;
39674;SDS011;27790;50.840;4.386;2023-04-26T14:32:12;6.85;;;3.13;;
39674;SDS011;27790;50.840;4.386;2023-04-26T14:34:38;8.73;;;3.83;;
39674;SDS011;27790;50.840;4.386;2023-04-26T14:37:04;7.40;;;3.35;;
39674;SDS011;27790;50.840;4.386;2023-04-26T14:39:30;5.03;;;4.10;;
39674;SDS011;27790;50.840;4.386;2023-04-26T14:41:56;6.65;;;3.90;;
39674;SDS011;27790;50.840;4.386;2023-04-26T14:44:25;5.45;;;3.72;;
39674;SDS011;27790;50.840;4.386;2023-04-26T14:46:52;8.68;;;3.60;;
39674;SDS011;27790;50.840;4.386;2023-04-26T14:49:19;8.13;;;4.30;;
39674;SDS011;27790;50.840;4.386;2023-04-26T14:51:45;9.23;;;3.38;;
39674;SDS011;27790;50.840;4.386;2023-04-26T14:54:10;7.00;;;3.83;;
39674;SDS011;27790;50.840;4.386;2023-04-26T14:56:36;7.93;;;3.63;;
39674;SDS011;27790;50.840;4.386;2023-04-26T14:59:02;5.88;;;4.53;;
39674;SDS011;27790;50.840;4.386;2023-04-26T15:01:28;10.38;;;3.92;;
39674;SDS011;27790;50.840;4.386;2023-04-26T15:03:54;6.70;;;3.90;;
39674;SDS011;27790;50.840;4.386;2023-04-26T15:06:20;8.35;;;4.55;;
39674;SDS011;27790;50.840;4.386;2023-04-26T15:08:45;6.25;;;3.65;;
39674;SDS011;27790;50.840;4.386;2023-04-26T15:11:11;8.43;;;3.92;;